createdAt,value
2023-04-20T00:00:29.357Z,19.80
2023-04-20T00:03:21.734Z,24.90
2023-04-20T00:05:50.588Z,23.40
2023-04-20T00:08:19.084Z,19.40
2023-04-20T00:10:47.751Z,27.70
2023-04-20T00:13:16.232Z,25.40
2023-04-20T00:15:45.027Z,26.10
2023-04-20T00:18:14.424Z,24.20
2023-04-20T00:20:44.017Z,16.90
2023-04-20T00:23:12.954Z,21.40
2023-04-20T00:25:42.128Z,19.30
2023-04-20T00:28:11.219Z,22.90
2023-04-20T00:30:40.025Z,23.20
2023-04-20T00:33:09.819Z,21.80
2023-04-20T00:35:38.562Z,25.80
2023-04-20T00:38:08.218Z,27.30
2023-04-20T00:40:38.947Z,29.00
2023-04-20T00:43:15.021Z,24.20
2023-04-20T00:45:43.580Z,17.50
2023-04-20T00:48:12.540Z,23.70
2023-04-20T00:50:41.983Z,23.90
2023-04-20T00:53:11.576Z,23.50
2023-04-20T00:55:43.184Z,25.20
2023-04-20T00:58:14.173Z,26.10
2023-04-20T01:00:42.976Z,21.40
2023-04-20T01:03:12.247Z,23.10
2023-04-20T01:05:41.468Z,26.80
2023-04-20T01:08:10.157Z,23.40
2023-04-20T01:10:39.163Z,25.30
2023-04-20T01:13:09.060Z,19.80
2023-04-20T01:15:37.728Z,27.20
2023-04-20T01:18:07.111Z,22.00
2023-04-20T01:20:40.620Z,25.10
2023-04-20T01:23:12.200Z,30.10
2023-04-20T01:25:41.914Z,33.20
2023-04-20T01:31:52.409Z,23.90
2023-04-20T01:34:21.181Z,22.40
2023-04-20T01:36:49.554Z,25.40
2023-04-20T01:39:19.261Z,26.70
2023-04-20T01:41:48.712Z,26.90
2023-04-20T01:44:17.566Z,22.00
2023-04-20T01:46:46.187Z,30.70
2023-04-20T01:49:14.974Z,29.40
2023-04-20T01:51:43.924Z,21.10
2023-04-20T01:54:12.523Z,26.20
2023-04-20T01:56:40.887Z,21.20
2023-04-20T01:59:10.295Z,27.50
2023-04-20T02:01:39.285Z,23.00
2023-04-20T02:04:07.786Z,20.00
2023-04-20T02:06:37.039Z,16.90
2023-04-20T02:09:06.259Z,23.30
2023-04-20T02:11:40.073Z,29.30
2023-04-20T02:14:08.445Z,24.80
2023-04-20T02:16:37.900Z,25.00
2023-04-20T02:19:07.148Z,21.50
2023-04-20T02:21:35.840Z,58.60
2023-04-20T02:24:05.841Z,76.00
2023-04-20T02:26:34.235Z,61.00
2023-04-20T02:29:02.832Z,71.90
2023-04-20T02:31:31.225Z,73.60
2023-04-20T02:33:59.883Z,72.20
2023-04-20T02:36:29.278Z,75.50
2023-04-20T02:38:57.883Z,92.70
2023-04-20T02:41:26.353Z,81.60
2023-04-20T02:43:55.408Z,81.90
2023-04-20T02:46:24.575Z,74.80
2023-04-20T02:48:53.532Z,64.00
2023-04-20T02:51:21.913Z,63.70
2023-04-20T02:53:51.517Z,83.70
2023-04-20T02:56:24.030Z,71.40
2023-04-20T02:58:55.962Z,68.80
2023-04-20T03:01:30.384Z,65.50
2023-04-20T03:04:07.097Z,64.60
2023-04-20T03:06:40.663Z,79.50
2023-04-20T03:09:10.261Z,85.90
2023-04-20T03:11:58.908Z,84.60
2023-04-20T03:15:07.573Z,77.20
2023-04-20T03:17:56.674Z,80.30
2023-04-20T03:20:25.606Z,84.60
2023-04-20T03:22:54.374Z,64.10
2023-04-20T03:25:24.808Z,97.60
2023-04-20T03:28:07.779Z,81.10
2023-04-20T03:30:36.535Z,79.30
2023-04-20T03:33:08.974Z,81.40
2023-04-20T03:35:39.541Z,70.00
2023-04-20T03:38:08.503Z,59.30
2023-04-20T03:40:38.208Z,62.40
2023-04-20T03:43:06.908Z,67.80
2023-04-20T03:45:35.531Z,74.30
2023-04-20T03:48:04.926Z,56.00
2023-04-20T03:50:33.364Z,68.60
2023-04-20T03:53:02.256Z,69.30
2023-04-20T03:55:31.360Z,62.50
2023-04-20T03:58:07.071Z,64.80
2023-04-20T04:00:45.309Z,50.70
2023-04-20T04:03:16.001Z,73.20
2023-04-20T04:05:45.248Z,70.10
2023-04-20T04:08:14.135Z,75.60
2023-04-20T04:10:42.844Z,54.60
2023-04-20T04:13:11.718Z,59.30
2023-04-20T04:15:40.597Z,73.70
2023-04-20T04:18:12.166Z,59.60
2023-04-20T04:20:41.451Z,62.40
2023-04-20T04:23:11.982Z,68.80
2023-04-20T04:25:49.008Z,66.00
2023-04-20T04:28:19.092Z,64.40
2023-04-20T04:30:54.629Z,69.60
2023-04-20T04:33:25.779Z,71.30
2023-04-20T04:35:55.661Z,72.70
2023-04-20T04:38:27.038Z,61.80
2023-04-20T04:40:56.745Z,75.80
2023-04-20T04:43:25.997Z,62.80
2023-04-20T04:46:10.000Z,61.10
2023-04-20T04:48:41.041Z,66.10
2023-04-20T04:51:10.466Z,67.50
2023-04-20T04:53:39.174Z,69.20
2023-04-20T04:56:08.215Z,52.90
2023-04-20T04:58:37.790Z,70.20
2023-04-20T05:01:06.857Z,58.90
2023-04-20T05:03:35.412Z,54.70
2023-04-20T05:06:04.242Z,54.70
2023-04-20T05:08:36.200Z,75.60
2023-04-20T05:11:04.856Z,70.50
2023-04-20T05:13:33.509Z,70.50
2023-04-20T05:16:02.547Z,98.90
2023-04-20T05:18:32.017Z,96.00
2023-04-20T05:21:02.065Z,104.80
2023-04-20T05:23:31.158Z,112.40
2023-04-20T05:25:59.721Z,117.80
2023-04-20T05:28:28.401Z,112.20
2023-04-20T05:30:57.806Z,114.80
2023-04-20T05:33:26.793Z,116.50
2023-04-20T05:35:58.962Z,106.10
2023-04-20T05:38:27.660Z,104.30
2023-04-20T05:40:56.433Z,107.50
2023-04-20T05:43:25.321Z,125.00
2023-04-20T05:45:54.082Z,95.80
2023-04-20T05:48:22.841Z,99.60
2023-04-20T05:50:51.888Z,98.20
2023-04-20T05:53:22.007Z,97.50
2023-04-20T05:55:50.698Z,90.50
2023-04-20T05:58:20.255Z,80.50
2023-04-20T06:00:49.084Z,79.90
2023-04-20T06:03:18.146Z,85.30
2023-04-20T06:05:47.299Z,76.60
2023-04-20T06:08:16.179Z,81.50
2023-04-20T06:10:45.638Z,85.80
2023-04-20T06:13:14.179Z,88.70
2023-04-20T06:15:43.049Z,84.00
2023-04-20T06:18:12.693Z,83.80
2023-04-20T06:20:46.060Z,87.50
2023-04-20T06:23:17.470Z,91.40
2023-04-20T06:25:46.842Z,68.50
2023-04-20T06:28:16.617Z,82.90
2023-04-20T06:30:45.199Z,86.50
2023-04-20T06:33:18.604Z,74.60
2023-04-20T06:35:47.499Z,80.90
2023-04-20T06:38:16.791Z,68.50
2023-04-20T06:41:02.409Z,62.10
2023-04-20T06:43:32.694Z,73.40
2023-04-20T06:46:02.377Z,57.30
2023-04-20T06:48:32.986Z,44.10
2023-04-20T06:51:02.326Z,53.90
2023-04-20T06:53:31.639Z,59.40
2023-04-20T06:56:00.987Z,61.70
2023-04-20T06:58:29.630Z,57.40
2023-04-20T07:01:00.270Z,54.00
2023-04-20T07:03:29.134Z,53.10
2023-04-20T07:05:58.049Z,51.70
2023-04-20T07:08:26.839Z,57.10
2023-04-20T07:10:55.951Z,50.20
2023-04-20T07:13:24.703Z,46.60
2023-04-20T07:16:01.778Z,47.30
2023-04-20T07:18:35.462Z,44.80
2023-04-20T07:21:05.095Z,56.80
2023-04-20T07:23:34.115Z,58.70
2023-04-20T07:26:02.983Z,59.90
2023-04-20T07:28:32.079Z,66.90
2023-04-20T07:31:01.078Z,54.20
2023-04-20T07:33:32.432Z,59.90
2023-04-20T07:36:01.274Z,58.10
2023-04-20T07:38:30.099Z,57.40
2023-04-20T07:40:58.680Z,54.70
2023-04-20T07:43:27.210Z,49.60
2023-04-20T07:46:01.560Z,44.40
2023-04-20T07:48:35.110Z,39.00
2023-04-20T07:51:04.547Z,50.20
2023-04-20T07:53:35.617Z,50.30
2023-04-20T07:56:04.313Z,40.60
2023-04-20T07:58:33.200Z,48.00
2023-04-20T08:01:02.691Z,38.70
2023-04-20T08:03:32.005Z,51.80
2023-04-20T08:06:07.675Z,48.00
2023-04-20T08:08:42.854Z,37.30
2023-04-20T08:11:19.629Z,32.00
2023-04-20T08:13:48.774Z,34.70
2023-04-20T08:16:17.534Z,48.20
2023-04-20T08:18:47.078Z,34.30
2023-04-20T08:21:16.255Z,35.80
2023-04-20T08:23:45.070Z,32.00
2023-04-20T08:26:18.198Z,32.60
2023-04-20T08:28:47.529Z,33.40
2023-04-20T08:31:16.584Z,23.90
2023-04-20T08:33:45.444Z,45.30
2023-04-20T08:36:16.762Z,28.70
2023-04-20T08:38:46.916Z,33.80
2023-04-20T08:41:15.721Z,45.10
2023-04-20T08:43:47.289Z,31.80
2023-04-20T08:46:26.537Z,32.50
2023-04-20T08:48:59.770Z,49.60
2023-04-20T08:51:31.715Z,34.50
2023-04-20T08:56:57.277Z,36.00
2023-04-20T09:03:03.060Z,27.00
2023-04-20T09:05:34.303Z,25.60
2023-04-20T09:12:43.700Z,29.40
2023-04-20T09:15:33.866Z,31.10
2023-04-20T09:18:19.561Z,26.90
2023-04-20T09:21:51.881Z,31.30
2023-04-20T09:24:26.310Z,22.40
2023-04-20T09:26:55.415Z,31.20
2023-04-20T09:29:31.618Z,25.10
2023-04-20T09:32:14.094Z,29.40
2023-04-20T09:34:54.325Z,25.30
2023-04-20T09:37:25.818Z,25.30
2023-04-20T09:40:01.330Z,36.70
2023-04-20T09:42:32.401Z,41.70
2023-04-20T09:45:03.780Z,29.40
2023-04-20T09:47:42.087Z,21.90
2023-04-20T09:50:48.311Z,27.90
2023-04-20T09:53:27.937Z,26.30
2023-04-20T09:55:58.875Z,22.10
2023-04-20T09:58:28.860Z,26.00
2023-04-20T10:00:58.730Z,18.20
2023-04-20T10:03:28.999Z,17.50
2023-04-20T10:05:59.500Z,22.70
2023-04-20T10:08:41.908Z,21.70
2023-04-20T10:11:11.881Z,29.00
2023-04-20T10:13:41.484Z,34.20
2023-04-20T10:16:21.709Z,25.10
2023-04-20T10:19:04.864Z,27.80
2023-04-20T10:21:46.716Z,26.40
2023-04-20T10:24:17.628Z,28.30
2023-04-20T10:26:49.705Z,23.00
2023-04-20T10:29:25.776Z,23.20
2023-04-20T10:31:56.043Z,26.90
2023-04-20T10:34:36.982Z,29.40
2023-04-20T10:37:14.094Z,14.80
2023-04-20T10:39:49.949Z,26.20
2023-04-20T10:42:21.021Z,25.90
2023-04-20T10:44:52.102Z,29.70
2023-04-20T10:47:32.490Z,19.80
2023-04-20T10:50:08.562Z,29.40
2023-04-20T10:52:38.933Z,19.30
2023-04-20T10:55:21.894Z,23.50
2023-04-20T10:57:57.651Z,20.50
2023-04-20T11:04:08.790Z,23.30
2023-04-20T11:06:48.602Z,28.30
2023-04-20T11:09:28.036Z,18.50
2023-04-20T11:12:05.000Z,17.50
2023-04-20T11:17:07.357Z,21.40
2023-04-20T11:19:39.164Z,22.50
2023-04-20T11:22:21.845Z,22.20
2023-04-20T11:24:50.867Z,34.30
2023-04-20T11:27:25.514Z,27.60
2023-04-20T11:29:59.968Z,27.50
2023-04-20T11:32:30.970Z,20.20
2023-04-20T11:35:08.286Z,17.10
2023-04-20T11:37:59.370Z,21.70
2023-04-20T11:40:28.531Z,23.70
2023-04-20T11:43:00.292Z,18.00
2023-04-20T11:45:35.686Z,20.50
2023-04-20T11:48:06.618Z,20.20
2023-04-20T11:50:35.505Z,16.50
2023-04-20T11:53:04.185Z,17.30
2023-04-20T11:55:33.172Z,31.60
2023-04-20T11:58:01.751Z,21.60
2023-04-20T12:00:31.146Z,19.60
2023-04-20T12:03:02.544Z,23.80
2023-04-20T12:05:31.304Z,19.80
2023-04-20T12:08:00.687Z,22.50
2023-04-20T12:10:29.423Z,29.00
2023-04-20T12:13:00.452Z,25.10
2023-04-20T12:15:32.213Z,18.70
2023-04-20T12:18:14.180Z,23.20
2023-04-20T12:20:43.057Z,25.70
2023-04-20T12:23:20.756Z,26.80
2023-04-20T12:25:49.949Z,18.20
2023-04-20T12:28:19.425Z,26.00
2023-04-20T12:30:48.462Z,19.30
2023-04-20T12:33:17.554Z,27.30
2023-04-20T12:35:51.687Z,22.40
2023-04-20T12:38:21.413Z,22.20
2023-04-20T12:40:50.090Z,22.10
2023-04-20T12:43:18.864Z,21.10
2023-04-20T12:45:50.608Z,25.40
2023-04-20T12:48:19.126Z,21.40
2023-04-20T12:50:48.482Z,23.80
2023-04-20T12:53:17.516Z,18.60
2023-04-20T12:55:46.178Z,24.00
2023-04-20T12:58:16.403Z,22.20
2023-04-20T13:00:45.351Z,16.30
2023-04-20T13:03:14.637Z,28.70
2023-04-20T13:05:55.752Z,28.00
2023-04-20T13:08:24.453Z,19.30
2023-04-20T13:10:55.305Z,22.90
2023-04-20T13:13:24.203Z,27.80
2023-04-20T13:15:58.519Z,20.00
2023-04-20T13:18:27.486Z,23.80
2023-04-20T13:20:56.110Z,25.90
2023-04-20T13:23:25.155Z,25.00
2023-04-20T13:25:54.269Z,28.20
2023-04-20T13:28:23.234Z,23.40
2023-04-20T13:30:57.860Z,37.40
2023-04-20T13:33:27.108Z,22.10
2023-04-20T13:36:01.687Z,26.50
2023-04-20T13:38:30.885Z,24.10
2023-04-20T13:41:02.318Z,24.90
2023-04-20T13:43:34.104Z,16.20
2023-04-20T13:46:05.097Z,18.40
2023-04-20T13:48:33.615Z,18.90
2023-04-20T13:51:05.688Z,24.40
2023-04-20T13:53:38.918Z,15.50
2023-04-20T13:56:14.210Z,26.40
2023-04-20T13:58:44.167Z,26.20
2023-04-20T14:01:18.280Z,23.80
2023-04-20T14:03:47.733Z,17.80
2023-04-20T14:06:16.737Z,19.00
2023-04-20T14:08:45.537Z,17.60
2023-04-20T14:11:14.724Z,16.00
2023-04-20T14:13:44.849Z,23.80
2023-04-20T14:16:17.294Z,39.60
2023-04-20T14:18:46.635Z,31.50
2023-04-20T14:21:15.253Z,39.20
2023-04-20T14:23:44.287Z,35.90
2023-04-20T14:26:13.236Z,43.30
2023-04-20T14:28:41.981Z,43.90
2023-04-20T14:31:10.367Z,39.70
2023-04-20T14:33:39.568Z,35.40
2023-04-20T14:36:09.469Z,47.90
2023-04-20T14:38:39.726Z,41.70
2023-04-20T14:41:08.793Z,46.00
2023-04-20T14:43:38.603Z,44.80
2023-04-20T14:46:07.764Z,44.50
2023-04-20T14:48:38.504Z,39.50
2023-04-20T14:51:08.309Z,41.20
2023-04-20T14:53:37.043Z,39.90
2023-04-20T14:56:06.845Z,33.50
2023-04-20T14:58:36.495Z,45.90
2023-04-20T15:01:05.705Z,46.80
2023-04-20T15:03:34.416Z,51.20
2023-04-20T15:06:03.842Z,44.60
2023-04-20T15:08:34.180Z,43.30
2023-04-20T15:11:05.937Z,41.10
2023-04-20T15:13:35.941Z,35.10
2023-04-20T15:16:05.707Z,26.50
2023-04-20T15:18:35.379Z,41.10
2023-04-20T15:21:04.350Z,47.80
2023-04-20T15:23:33.752Z,43.80
2023-04-20T15:26:02.992Z,37.90
2023-04-20T15:28:32.155Z,35.20
2023-04-20T15:31:00.944Z,41.50
2023-04-20T15:33:32.374Z,40.40
2023-04-20T15:36:02.882Z,40.40
2023-04-20T15:38:31.494Z,35.50
2023-04-20T15:41:02.862Z,46.20
2023-04-20T15:43:31.431Z,44.90
2023-04-20T15:46:00.210Z,57.40
2023-04-20T15:48:29.574Z,51.20
2023-04-20T15:50:59.665Z,45.50
2023-04-20T15:53:33.746Z,49.10
2023-04-20T15:56:02.762Z,62.70
2023-04-20T15:58:31.525Z,45.70
2023-04-20T16:01:00.273Z,55.90
2023-04-20T16:03:29.338Z,50.90
2023-04-20T16:05:58.511Z,59.50
2023-04-20T16:08:28.333Z,53.50
2023-04-20T16:10:57.419Z,54.10
2023-04-20T16:13:29.292Z,60.40
2023-04-20T16:15:58.444Z,54.80
2023-04-20T16:18:27.980Z,55.90
2023-04-20T16:20:56.861Z,60.20
2023-04-20T16:23:26.135Z,50.10
2023-04-20T16:25:54.946Z,61.10
2023-04-20T16:28:23.746Z,71.30
2023-04-20T16:30:52.530Z,76.50
2023-04-20T16:33:21.991Z,55.20
2023-04-20T16:35:51.544Z,68.40
2023-04-20T16:38:20.530Z,73.60
2023-04-20T16:40:49.237Z,61.30
2023-04-20T16:43:17.939Z,45.00
2023-04-20T16:45:47.303Z,59.40
2023-04-20T16:48:16.300Z,68.80
2023-04-20T16:50:46.014Z,52.60
2023-04-20T16:53:16.243Z,55.90
2023-04-20T16:55:45.861Z,59.80
2023-04-20T17:01:53.941Z,37.40
2023-04-20T17:04:23.446Z,34.80
2023-04-20T17:06:53.924Z,25.00
2023-04-20T17:09:23.729Z,28.30
2023-04-20T17:11:53.235Z,21.00
2023-04-20T17:14:21.719Z,23.70
2023-04-20T17:16:54.402Z,30.70
2023-04-20T17:19:23.990Z,25.70
2023-04-20T17:21:53.791Z,31.30
2023-04-20T17:24:24.957Z,38.50
2023-04-20T17:26:53.546Z,40.00
2023-04-20T17:29:22.360Z,36.20
2023-04-20T17:31:51.788Z,30.50
2023-04-20T17:34:21.078Z,25.90
2023-04-20T17:36:50.426Z,30.40
2023-04-20T17:39:20.539Z,29.30
2023-04-20T17:41:49.094Z,28.80
2023-04-20T17:44:18.038Z,27.10
2023-04-20T17:46:47.013Z,25.40
2023-04-20T17:49:16.095Z,32.50
2023-04-20T17:51:45.513Z,17.90
2023-04-20T17:54:15.810Z,30.00
2023-04-20T17:56:44.622Z,20.70
2023-04-20T17:59:13.894Z,24.30
2023-04-20T18:01:42.751Z,15.40
2023-04-20T18:04:11.868Z,16.90
2023-04-20T18:06:40.901Z,14.80
2023-04-20T18:09:10.301Z,14.10
2023-04-20T18:11:39.186Z,9.70
2023-04-20T18:14:08.524Z,12.70
2023-04-20T18:16:38.001Z,17.20
2023-04-20T18:19:06.581Z,12.70
2023-04-20T18:21:36.399Z,12.60
2023-04-20T18:24:07.148Z,11.90
2023-04-20T18:26:35.706Z,17.40
2023-04-20T18:29:04.716Z,21.50
2023-04-20T18:31:33.855Z,18.10
2023-04-20T18:34:02.581Z,12.20
2023-04-20T18:36:48.497Z,19.20
2023-04-20T18:39:17.163Z,16.20
2023-04-20T18:41:46.171Z,13.30
2023-04-20T18:44:18.888Z,15.00
2023-04-20T18:46:56.706Z,13.10
2023-04-20T18:49:25.417Z,20.30
2023-04-20T18:51:54.103Z,18.50
2023-04-20T18:54:23.044Z,15.90
2023-04-20T18:56:57.405Z,16.80
2023-04-20T18:59:26.468Z,18.70
2023-04-20T19:01:57.892Z,14.50
2023-04-20T19:04:26.748Z,11.40
2023-04-20T19:06:58.406Z,18.60
2023-04-20T19:09:26.927Z,26.80
2023-04-20T19:11:55.774Z,35.00
2023-04-20T19:14:24.246Z,28.20
2023-04-20T19:16:53.120Z,33.60
2023-04-20T19:19:21.858Z,25.80
2023-04-20T19:21:50.591Z,31.80
2023-04-20T19:24:19.450Z,39.30
2023-04-20T19:26:48.449Z,35.20
2023-04-20T19:29:17.082Z,24.90
2023-04-20T19:31:46.585Z,27.90
2023-04-20T19:34:17.066Z,26.00
2023-04-20T19:36:51.266Z,20.50
2023-04-20T19:39:20.739Z,35.50
2023-04-20T19:45:00.353Z,43.60
2023-04-20T19:47:37.419Z,25.90
2023-04-20T19:50:23.009Z,34.60
2023-04-20T19:52:59.149Z,36.40
2023-04-20T19:55:37.556Z,23.50
2023-04-20T19:58:09.598Z,25.10
2023-04-20T20:00:41.668Z,30.70
2023-04-20T20:03:12.365Z,26.60
2023-04-20T20:05:41.755Z,23.70
2023-04-20T20:08:54.933Z,14.50
2023-04-20T20:11:37.960Z,22.90
2023-04-20T20:14:08.367Z,40.70
2023-04-20T20:16:39.704Z,24.30
2023-04-20T20:19:37.837Z,38.10
2023-04-20T20:22:17.738Z,30.70
2023-04-20T20:24:47.880Z,34.40
2023-04-20T20:30:29.792Z,34.30
2023-04-20T20:32:59.318Z,30.60
2023-04-20T20:35:31.846Z,25.20
2023-04-20T20:38:00.545Z,20.70
2023-04-20T20:40:29.231Z,23.30
2023-04-20T20:42:58.656Z,36.80
2023-04-20T20:45:28.223Z,33.50
2023-04-20T20:47:57.103Z,32.30
2023-04-20T20:50:28.132Z,38.30
2023-04-20T20:52:56.856Z,34.60
2023-04-20T20:55:26.064Z,42.70
2023-04-20T20:57:54.654Z,42.60
2023-04-20T21:03:55.800Z,39.00
2023-04-20T21:06:38.420Z,36.50
2023-04-20T21:09:06.901Z,42.10
2023-04-20T21:11:35.487Z,43.60
2023-04-20T21:14:04.374Z,59.80
2023-04-20T21:16:33.296Z,40.20
2023-04-20T21:19:02.182Z,46.50
2023-04-20T21:21:30.847Z,52.00
2023-04-20T21:24:00.146Z,48.00
2023-04-20T21:26:29.752Z,42.00
2023-04-20T21:28:58.233Z,43.60
2023-04-20T21:31:26.750Z,38.50
2023-04-20T21:33:55.284Z,40.80
2023-04-20T21:36:24.184Z,43.60
2023-04-20T21:38:52.677Z,40.20
2023-04-20T21:41:22.088Z,34.50
2023-04-20T21:43:53.496Z,41.40
2023-04-20T21:46:22.059Z,40.10
2023-04-20T21:48:53.865Z,37.80
2023-04-20T21:51:22.547Z,39.70
2023-04-20T21:53:51.045Z,37.30
2023-04-20T21:56:19.708Z,32.30
2023-04-20T21:58:49.211Z,35.40
2023-04-20T22:01:18.079Z,26.20
2023-04-20T22:03:47.867Z,38.10
2023-04-20T22:06:17.835Z,25.40
2023-04-20T22:08:46.212Z,42.10
2023-04-20T22:11:15.006Z,27.80
2023-04-20T22:13:44.410Z,30.00
2023-04-20T22:16:13.239Z,29.70
2023-04-20T22:18:42.590Z,34.20
2023-04-20T22:21:10.968Z,37.20
2023-04-20T22:23:39.705Z,57.90
2023-04-20T22:26:08.439Z,24.70
2023-04-20T22:28:37.126Z,32.50
2023-04-20T22:31:06.757Z,34.30
2023-04-20T22:33:35.761Z,28.80
2023-04-20T22:36:04.797Z,20.00
2023-04-20T22:38:35.986Z,55.20
2023-04-20T22:41:05.067Z,49.00
2023-04-20T22:43:33.449Z,48.10
2023-04-20T22:46:01.945Z,42.00
2023-04-20T22:48:30.306Z,57.10
2023-04-20T22:51:01.363Z,45.20
2023-04-20T22:53:30.551Z,37.20
2023-04-20T22:56:07.156Z,45.30
2023-04-20T22:58:35.609Z,55.80
2023-04-20T23:01:04.131Z,45.60
2023-04-20T23:03:33.105Z,35.50
2023-04-20T23:06:01.740Z,48.40
2023-04-20T23:08:30.233Z,49.40
2023-04-20T23:10:59.223Z,38.00
2023-04-20T23:13:27.836Z,39.20
2023-04-20T23:15:56.423Z,45.30
2023-04-20T23:18:25.072Z,45.30
2023-04-20T23:20:56.905Z,35.50
2023-04-20T23:23:25.415Z,42.80
2023-04-20T23:25:53.992Z,38.40
2023-04-20T23:28:22.962Z,29.30
2023-04-20T23:30:52.078Z,37.60
2023-04-20T23:33:20.457Z,32.20
2023-04-20T23:35:49.161Z,30.50
2023-04-20T23:38:20.109Z,20.90
2023-04-20T23:40:48.804Z,30.70
2023-04-20T23:43:17.576Z,30.10
2023-04-20T23:45:46.173Z,23.90
2023-04-20T23:48:15.043Z,36.10
2023-04-20T23:50:43.925Z,34.90
2023-04-20T23:53:12.647Z,30.60
2023-04-20T23:55:41.104Z,25.60
2023-04-20T23:58:09.678Z,37.70
